createdAt,value
2018-06-11T00:03:36.783Z,31.2
2018-06-11T00:13:51.928Z,28.3
2018-06-11T00:24:06.263Z,26.6
2018-06-11T00:34:22.031Z,25.6
2018-06-11T00:44:37.601Z,23.2
2018-06-11T00:54:52.303Z,21.5
2018-06-11T01:05:07.856Z,20.7
2018-06-11T01:15:22.223Z,19.6
2018-06-11T01:25:36.460Z,18.1
2018-06-11T01:35:51.529Z,17.4
2018-06-11T01:46:06.539Z,16.2
2018-06-11T01:56:21.390Z,15.6
2018-06-11T02:06:36.881Z,15.4
2018-06-11T02:16:51.558Z,17.3
2018-06-11T02:27:07.283Z,25.1
2018-06-11T02:37:22.527Z,40
2018-06-11T02:47:38.179Z,53
2018-06-11T02:57:53.214Z,59.4
2018-06-11T03:08:07.507Z,63.1
2018-06-11T03:18:22.521Z,69.7
2018-06-11T03:28:37.966Z,77.3
2018-06-11T03:38:53.690Z,82
2018-06-11T03:49:07.630Z,93.3
2018-06-11T03:59:21.499Z,96.6
2018-06-11T04:09:35.620Z,97.9
2018-06-11T04:19:50.317Z,100
2018-06-11T04:30:04.311Z,100
2018-06-11T04:40:19.183Z,100
2018-06-11T04:50:34.291Z,100
2018-06-11T05:00:49.907Z,100
2018-06-11T05:11:05.501Z,100
2018-06-11T05:21:19.503Z,100
2018-06-11T05:31:33.328Z,100
2018-06-11T05:41:48.599Z,100
2018-06-11T05:52:03.762Z,100
2018-06-11T06:02:19.515Z,100
2018-06-11T06:12:35.264Z,100
2018-06-11T06:22:49.167Z,100
2018-06-11T06:33:04.262Z,100
2018-06-11T06:43:18.600Z,100
2018-06-11T06:53:34.279Z,100
2018-06-11T07:03:48.462Z,100
2018-06-11T07:14:02.587Z,100
2018-06-11T07:24:16.913Z,100
2018-06-11T07:34:31.354Z,100
2018-06-11T07:44:46.728Z,100
2018-06-11T07:55:01.284Z,100
2018-06-11T08:05:17.194Z,100
2018-06-11T08:15:31.465Z,100
2018-06-11T08:25:45.621Z,100
2018-06-11T08:35:59.872Z,100
2018-06-11T08:46:15.796Z,99.7
2018-06-11T08:56:29.887Z,96.8
2018-06-11T09:06:44.838Z,95.5
2018-06-11T09:17:00.208Z,90.9
2018-06-11T09:27:15.890Z,89.5
2018-06-11T09:37:30.093Z,89.2
2018-06-11T09:47:44.236Z,89.8
2018-06-11T09:57:59.428Z,89.8
2018-06-11T10:08:13.409Z,89.4
2018-06-11T10:18:28.471Z,86.4
2018-06-11T10:28:42.778Z,88.8
2018-06-11T10:38:57.188Z,86.8
2018-06-11T10:49:12.417Z,84.7
2018-06-11T10:59:26.954Z,84.1
2018-06-11T11:09:41.358Z,83.5
2018-06-11T11:19:55.511Z,79.9
2018-06-11T11:30:10.667Z,77.7
2018-06-11T11:40:24.416Z,77.6
2018-06-11T11:50:39.586Z,78.9
2018-06-11T12:00:54.688Z,78.3
2018-06-11T12:11:08.767Z,77.9
2018-06-11T12:21:23.704Z,76.7
2018-06-11T12:31:39.379Z,76.4
2018-06-11T12:41:55.024Z,77.5
2018-06-11T13:02:23.254Z,73.7
2018-06-11T13:12:38.047Z,75.3
2018-06-11T13:22:53.880Z,74
2018-06-11T13:33:08.006Z,73.6
2018-06-11T13:43:22.019Z,73.8
2018-06-11T13:53:37.215Z,73.1
2018-06-11T14:03:52.514Z,71.4
2018-06-11T14:14:07.891Z,70.6
2018-06-11T14:24:22.709Z,71.6
2018-06-11T14:34:38.465Z,73.1
2018-06-11T14:44:53.756Z,73.2
2018-06-11T14:55:08.134Z,72.6
2018-06-11T15:05:23.900Z,73.8
2018-06-11T15:15:37.969Z,74.1
2018-06-11T15:25:52.459Z,73.3
2018-06-11T15:36:06.434Z,74
2018-06-11T15:46:21.426Z,75.1
2018-06-11T15:56:35.519Z,75.1
2018-06-11T16:06:50.065Z,77.1
2018-06-11T16:17:05.463Z,77.4
2018-06-11T16:27:20.051Z,77
2018-06-11T16:37:35.077Z,77.3
2018-06-11T16:47:50.166Z,78.3
2018-06-11T16:58:05.647Z,78.6
2018-06-11T17:08:19.780Z,77.9
2018-06-11T17:18:34.066Z,77.6
2018-06-11T17:28:49.504Z,77.8
2018-06-11T17:39:03.047Z,78.4
2018-06-11T17:49:17.885Z,79
2018-06-11T17:59:33.607Z,79.1
2018-06-11T18:09:49.213Z,79.9
2018-06-11T18:20:03.849Z,81.4
2018-06-11T18:30:18.273Z,82.8
2018-06-11T18:40:33.645Z,84.5
2018-06-11T18:50:48.449Z,85.3
2018-06-11T19:01:04.027Z,86.2
2018-06-11T19:11:18.674Z,87.5
2018-06-11T19:21:33.148Z,88.3
2018-06-11T19:31:48.648Z,89.4
2018-06-11T19:42:03.692Z,90.3
2018-06-11T19:52:17.679Z,91.2
2018-06-11T20:02:33.182Z,92.9
2018-06-11T20:12:49.035Z,94.2
2018-06-11T20:23:03.034Z,95.2
2018-06-11T20:33:17.627Z,96
2018-06-11T20:43:33.222Z,97.1
2018-06-11T20:53:47.525Z,97.6
2018-06-11T21:04:02.290Z,98
2018-06-11T21:14:16.227Z,97.4
2018-06-11T21:24:31.028Z,95.4
2018-06-11T21:34:46.484Z,96.3
2018-06-11T21:45:02.068Z,92.7
2018-06-11T21:55:16.168Z,88.7
2018-06-11T22:05:30.615Z,86.1
2018-06-11T22:15:44.979Z,83
2018-06-11T22:25:59.148Z,84.9
2018-06-11T22:36:14.176Z,85.1
2018-06-11T22:46:27.954Z,82.9
2018-06-11T22:56:43.417Z,80.8
2018-06-11T23:06:58.175Z,78
2018-06-11T23:17:12.393Z,76.2
2018-06-11T23:27:27.605Z,75.8
2018-06-11T23:37:41.866Z,73.9
2018-06-11T23:47:57.408Z,72.8
2018-06-11T23:58:11.525Z,72.3
